Time;durP1;ratioP1;P1;durP2;ratioP2;P2;SDS_P1;SDS_P2;PMS_P1;PMS_P2;Temp;Humidity;BMP_temperature;BMP_pressure;BME280_temperature;BME280_humidity;BME280_pressure;Samples;Min_cycle;Max_cycle;Signal;HPM_P1;HPM_P2
2024/01/10 00:00:09;;;;;;;;;;;18.70;58.60;;;;;;5086374;28;43106;-81
2024/01/10 00:02:35;;;;;;;;;;;18.90;58.90;;;;;;5086305;27;42896;-79
2024/01/10 00:05:00;;;;;;;;;;;18.80;58.20;;;;;;5086387;28;43371;-79
2024/01/10 00:07:26;;;;;;;;;;;18.90;58.80;;;;;;5086924;28;42880;-79
2024/01/10 00:09:52;;;;;;;;;;;18.90;58.90;;;;;;5085290;28;42987;-81
2024/01/10 00:12:17;;;;;;;;;;;18.90;58.80;;;;;;5083674;28;43183;-81
2024/01/10 00:14:43;;;;;;;;;;;18.90;58.90;;;;;;5085113;28;43836;-81
2024/01/10 00:17:08;;;;;;;;;;;18.90;58.30;;;;;;5084831;28;43130;-81
2024/01/10 00:19:34;;;;;;;;;;;18.80;58.30;;;;;;5085469;28;42918;-79
2024/01/10 00:21:59;;;;;;;;;;;18.80;58.30;;;;;;5085110;28;42909;-81
2024/01/10 00:24:24;;;;;;;;;;;18.90;59.10;;;;;;5085924;28;42998;-80
2024/01/10 00:26:50;;;;;;;;;;;18.90;59.00;;;;;;5086933;28;43010;-81
2024/01/10 00:29:15;;;;;;;;;;;18.80;59.00;;;;;;5086694;28;42920;-80
2024/01/10 00:31:41;;;;;;;;;;;18.80;59.00;;;;;;5086000;28;42986;-80
2024/01/10 00:34:07;;;;;;;;;;;18.80;58.90;;;;;;5086519;28;43256;-80
2024/01/10 00:36:32;;;;;;;;;;;18.80;59.20;;;;;;5085618;28;42966;-83
2024/01/10 00:38:58;;;;;;;;;;;18.90;59.40;;;;;;5084026;28;42902;-81
2024/01/10 00:41:23;;;;;;;;;;;18.90;59.40;;;;;;5086041;28;43050;-80
2024/01/10 00:43:49;;;;;;;;;;;18.90;59.50;;;;;;5086045;28;43437;-81
2024/01/10 00:46:14;;;;;;;;;;;18.80;58.90;;;;;;5086017;28;42974;-80
2024/01/10 00:48:40;;;;;;;;;;;18.90;59.00;;;;;;5086199;28;43733;-80
2024/01/10 00:51:08;;;;;;;;;;;18.90;59.60;;;;;;5086037;28;42954;-79
2024/01/10 00:53:38;;;;;;;;;;;18.80;59.50;;;;;;5085346;28;44686;-82
2024/01/10 00:56:04;;;;;;;;;;;18.90;59.00;;;;;;5085264;28;42992;-81
2024/01/10 00:58:30;;;;;;;;;;;18.90;59.60;;;;;;5085351;28;42967;-80
2024/01/10 01:00:55;;;;;;;;;;;18.90;59.10;;;;;;5086038;28;42902;-79
2024/01/10 01:03:20;;;;;;;;;;;20.30;59.80;;;;;;5084884;28;43401;-80
2024/01/10 01:05:46;;;;;;;;;;;18.90;59.20;;;;;;5086128;28;42949;-80
2024/01/10 01:08:11;;;;;;;;;;;18.90;59.20;;;;;;5085424;28;42973;-79
2024/01/10 01:10:39;;;;;;;;;;;18.90;59.80;;;;;;5086123;28;42924;-79
2024/01/10 01:13:04;;;;;;;;;;;18.90;59.70;;;;;;5050390;28;43567;-80
2024/01/10 01:15:30;;;;;;;;;;;18.80;59.80;;;;;;5024817;28;43008;-80
2024/01/10 01:17:55;;;;;;;;;;;18.90;59.90;;;;;;5023822;28;44039;-79
2024/01/10 01:20:22;;;;;;;;;;;18.90;59.90;;;;;;5042025;28;43203;-79
2024/01/10 01:22:48;;;;;;;;;;;18.80;59.30;;;;;;5043926;28;43034;-80
2024/01/10 01:25:14;;;;;;;;;;;18.90;59.40;;;;;;5029346;28;43127;-79
2024/01/10 01:27:39;;;;;;;;;;;18.80;60.10;;;;;;5041392;28;44720;-79
2024/01/10 01:30:05;;;;;;;;;;;18.90;60.20;;;;;;5034983;28;43184;-80
2024/01/10 01:32:31;;;;;;;;;;;18.90;60.10;;;;;;5038703;28;43734;-80
2024/01/10 01:34:56;;;;;;;;;;;18.80;59.70;;;;;;5041541;28;43022;-79
2024/01/10 01:37:22;;;;;;;;;;;18.90;59.80;;;;;;5042126;28;44585;-79
2024/01/10 01:39:47;;;;;;;;;;;18.80;59.70;;;;;;5042907;28;43295;-80
2024/01/10 01:42:13;;;;;;;;;;;18.80;60.40;;;;;;5043560;28;44080;-81
2024/01/10 01:44:38;;;;;;;;;;;18.90;60.40;;;;;;5043836;28;42785;-81
2024/01/10 01:47:04;;;;;;;;;;;18.90;60.60;;;;;;5043063;28;42988;-80
2024/01/10 01:49:30;;;;;;;;;;;18.90;60.50;;;;;;5039916;28;43485;-79
2024/01/10 01:51:56;;;;;;;;;;;18.80;59.80;;;;;;5043375;28;44655;-80
2024/01/10 01:54:21;;;;;;;;;;;16.10;59.00;;;;;;5044818;28;42824;-79
2024/01/10 01:56:49;;;;;;;;;;;18.80;60.40;;;;;;5042874;28;43987;-83
2024/01/10 01:59:14;;;;;;;;;;;18.80;60.40;;;;;;5044195;28;42989;-82
2024/01/10 02:01:40;;;;;;;;;;;18.90;60.70;;;;;;5044348;28;42867;-83
2024/01/10 02:04:06;;;;;;;;;;;18.80;60.50;;;;;;5043874;28;42919;-84
2024/01/10 02:06:31;;;;;;;;;;;18.80;60.80;;;;;;5044169;28;43072;-82
2024/01/10 02:08:57;;;;;;;;;;;18.80;60.10;;;;;;5044129;28;42895;-81
2024/01/10 02:11:23;;;;;;;;;;;18.90;60.80;;;;;;5042234;28;43221;-81
2024/01/10 02:13:49;;;;;;;;;;;18.80;60.80;;;;;;5053162;28;42886;-81
2024/01/10 02:16:14;;;;;;;;;;;18.90;61.00;;;;;;5050676;28;43017;-82
2024/01/10 02:18:40;;;;;;;;;;;19.80;61.60;;;;;;5043666;28;43167;-81
2024/01/10 02:21:05;;;;;;;;;;;18.90;60.40;;;;;;5043941;28;44478;-79
2024/01/10 02:23:31;;;;;;;;;;;18.90;61.00;;;;;;5044946;28;42955;-80
2024/01/10 02:25:56;;;;;;;;;;;18.80;61.00;;;;;;5045687;28;42947;-81
2024/01/10 02:28:23;;;;;;;;;;;18.90;61.00;;;;;;5048020;28;42916;-80
2024/01/10 02:30:49;;;;;;;;;;;18.80;60.30;;;;;;5047592;28;43683;-83
2024/01/10 02:33:15;;;;;;;;;;;18.80;61.00;;;;;;5047248;28;43155;-79
2024/01/10 02:35:40;;;;;;;;;;;18.80;61.00;;;;;;5047415;28;43017;-82
2024/01/10 02:38:06;;;;;;;;;;;18.80;61.10;;;;;;5047237;28;43105;-82
2024/01/10 02:40:31;;;;;;;;;;;18.80;61.00;;;;;;5047860;28;43533;-82
2024/01/10 02:42:57;;;;;;;;;;;18.80;61.20;;;;;;5047959;28;43015;-82
2024/01/10 02:45:22;;;;;;;;;;;18.80;61.30;;;;;;5046879;28;43618;-83
2024/01/10 02:47:48;;;;;;;;;;;18.80;61.30;;;;;;5047171;28;43114;-78
2024/01/10 02:50:13;;;;;;;;;;;18.70;60.40;;;;;;5047271;28;42879;-83
2024/01/10 02:52:39;;;;;;;;;;;18.80;61.50;;;;;;5047073;28;42894;-81
2024/01/10 02:55:04;;;;;;;;;;;18.80;61.20;;;;;;5047488;28;43660;-83
2024/01/10 02:57:30;;;;;;;;;;;18.70;60.40;;;;;;5047413;28;43090;-81
2024/01/10 02:59:55;;;;;;;;;;;18.80;61.20;;;;;;5047122;28;42986;-81
2024/01/10 03:02:23;;;;;;;;;;;18.80;61.30;;;;;;5046410;28;43071;-82
2024/01/10 03:04:49;;;;;;;;;;;18.80;61.10;;;;;;5047308;28;42874;-81
2024/01/10 03:07:14;;;;;;;;;;;18.70;60.50;;;;;;5047191;28;42932;-80
2024/01/10 03:09:40;;;;;;;;;;;18.80;61.30;;;;;;5045528;28;43873;-81
2024/01/10 03:12:07;;;;;;;;;;;18.80;61.20;;;;;;5062543;28;42841;-81
2024/01/10 03:14:33;;;;;;;;;;;18.80;61.00;;;;;;5087409;28;42837;-81
2024/01/10 03:16:58;;;;;;;;;;;18.80;61.10;;;;;;5087171;28;42970;-81
2024/01/10 03:19:24;;;;;;;;;;;18.80;61.10;;;;;;5086831;28;43509;-81
2024/01/10 03:21:49;;;;;;;;;;;18.80;60.60;;;;;;5086830;28;42868;-82
2024/01/10 03:24:15;;;;;;;;;;;18.80;61.30;;;;;;5084740;28;43750;-78
2024/01/10 03:26:40;;;;;;;;;;;18.80;60.50;;;;;;5085671;28;42957;-80
2024/01/10 03:29:06;;;;;;;;;;;18.80;61.70;;;;;;5086035;28;44464;-80
2024/01/10 03:31:31;;;;;;;;;;;18.80;61.70;;;;;;5086875;28;43084;-79
2024/01/10 03:33:58;;;;;;;;;;;18.70;61.60;;;;;;5086462;27;43010;-79
2024/01/10 03:36:24;;;;;;;;;;;18.80;61.70;;;;;;5087737;28;42896;-79
2024/01/10 03:38:50;;;;;;;;;;;18.60;61.00;;;;;;5090958;28;42967;-80
2024/01/10 03:41:16;;;;;;;;;;;18.80;61.10;;;;;;5087897;28;43044;-79
2024/01/10 03:43:41;;;;;;;;;;;18.80;61.60;;;;;;5075934;28;43511;-80
2024/01/10 03:46:07;;;;;;;;;;;18.80;61.80;;;;;;5066242;28;43012;-80
2024/01/10 03:48:33;;;;;;;;;;;18.80;61.80;;;;;;5079374;28;43209;-80
2024/01/10 03:50:58;;;;;;;;;;;18.80;61.10;;;;;;5071411;28;43039;-79
2024/01/10 03:53:24;;;;;;;;;;;18.80;61.90;;;;;;5079911;28;43761;-79
2024/01/10 03:55:49;;;;;;;;;;;18.80;61.80;;;;;;5075109;28;43028;-79
2024/01/10 03:58:15;;;;;;;;;;;18.70;61.10;;;;;;5065698;28;43609;-79
2024/01/10 04:00:40;;;;;;;;;;;18.70;61.10;;;;;;5076279;28;42935;-79
2024/01/10 04:03:06;;;;;;;;;;;18.80;61.90;;;;;;5065851;28;42987;-79
2024/01/10 04:05:31;;;;;;;;;;;19.30;61.50;;;;;;5072618;28;42900;-79
2024/01/10 04:07:57;;;;;;;;;;;18.80;61.90;;;;;;5086187;28;42844;-79
2024/01/10 04:10:22;;;;;;;;;;;18.80;61.90;;;;;;5068081;28;42928;-79
2024/01/10 04:12:48;;;;;;;;;;;18.80;61.80;;;;;;5086211;28;43818;-79
2024/01/10 04:15:14;;;;;;;;;;;18.70;61.30;;;;;;5086940;28;43317;-80
2024/01/10 04:17:40;;;;;;;;;;;18.70;61.20;;;;;;5087277;28;42941;-79
2024/01/10 04:20:06;;;;;;;;;;;18.80;62.10;;;;;;5085543;28;44179;-78
2024/01/10 04:22:32;;;;;;;;;;;18.80;62.00;;;;;;5086372;28;43561;-80
2024/01/10 04:24:58;;;;;;;;;;;18.80;61.40;;;;;;5086508;28;43019;-79
2024/01/10 04:27:23;;;;;;;;;;;18.80;61.90;;;;;;5086658;28;43861;-80
2024/01/10 04:29:49;;;;;;;;;;;18.80;62.70;;;;;;5086532;28;42951;-79
2024/01/10 04:32:14;;;;;;;;;;;18.80;62.10;;;;;;5081970;28;43120;-79
2024/01/10 04:34:40;;;;;;;;;;;18.80;62.00;;;;;;5085914;28;43013;-79
2024/01/10 04:37:06;;;;;;;;;;;18.80;62.10;;;;;;5086318;28;42827;-78
2024/01/10 04:39:32;;;;;;;;;;;18.70;62.00;;;;;;5086147;28;43076;-78
2024/01/10 04:41:58;;;;;;;;;;;18.70;61.90;;;;;;5084866;28;43576;-78
2024/01/10 04:44:24;;;;;;;;;;;18.70;62.10;;;;;;5085145;28;43014;-79
2024/01/10 04:46:49;;;;;;;;;;;18.70;61.30;;;;;;5084859;28;43515;-80
2024/01/10 04:49:15;;;;;;;;;;;18.80;61.40;;;;;;5085701;28;42829;-80
2024/01/10 04:51:40;;;;;;;;;;;18.70;62.10;;;;;;5086111;28;42969;-79
2024/01/10 04:54:06;;;;;;;;;;;18.70;62.00;;;;;;5085586;28;42944;-79
2024/01/10 04:56:31;;;;;;;;;;;18.70;61.30;;;;;;5085687;28;42883;-80
2024/01/10 04:58:57;;;;;;;;;;;18.80;62.20;;;;;;5086173;28;42947;-79
2024/01/10 05:01:23;;;;;;;;;;;18.70;61.40;;;;;;5085157;28;42965;-79
2024/01/10 05:03:48;;;;;;;;;;;18.70;62.10;;;;;;5085458;28;42783;-79
2024/01/10 05:06:14;;;;;;;;;;;18.80;61.50;;;;;;5085278;28;43632;-79
2024/01/10 05:08:40;;;;;;;;;;;18.80;62.00;;;;;;5084234;28;42941;-79
2024/01/10 05:11:05;;;;;;;;;;;18.80;62.20;;;;;;5085531;28;43647;-79
2024/01/10 05:13:31;;;;;;;;;;;18.70;62.10;;;;;;5085145;28;42999;-79
2024/01/10 05:15:56;;;;;;;;;;;18.80;62.10;;;;;;5084988;28;42898;-78
2024/01/10 05:18:22;;;;;;;;;;;18.80;62.10;;;;;;5085093;28;43142;-79
2024/01/10 05:20:47;;;;;;;;;;;18.70;62.10;;;;;;5084858;28;43138;-79
2024/01/10 05:23:13;;;;;;;;;;;18.70;62.20;;;;;;5084980;28;42915;-80
2024/01/10 05:25:39;;;;;;;;;;;18.70;62.10;;;;;;5083369;28;42961;-79
2024/01/10 05:28:05;;;;;;;;;;;18.80;61.60;;;;;;5085491;28;42875;-79
2024/01/10 05:30:31;;;;;;;;;;;18.70;62.20;;;;;;5081868;28;43029;-80
2024/01/10 05:32:58;;;;;;;;;;;18.70;62.10;;;;;;5065700;28;42969;-79
2024/01/10 05:35:25;;;;;;;;;;;18.70;62.10;;;;;;5083321;28;44053;-79
2024/01/10 05:37:51;;;;;;;;;;;18.70;62.40;;;;;;5083809;28;42934;-79
2024/01/10 05:40:17;;;;;;;;;;;18.70;62.30;;;;;;5082468;28;44008;-79
2024/01/10 05:42:42;;;;;;;;;;;18.70;62.50;;;;;;5084328;28;42875;-79
2024/01/10 05:45:08;;;;;;;;;;;18.70;61.80;;;;;;5084111;28;42972;-79
2024/01/10 05:47:34;;;;;;;;;;;18.70;62.40;;;;;;5084384;28;43192;-78
2024/01/10 05:50:00;;;;;;;;;;;18.70;63.00;;;;;;5082126;28;43831;-78
2024/01/10 05:52:26;;;;;;;;;;;18.70;62.40;;;;;;5083766;28;42958;-78
2024/01/10 05:54:52;;;;;;;;;;;18.70;62.50;;;;;;5084224;28;43321;-79
2024/01/10 05:57:17;;;;;;;;;;;18.70;61.90;;;;;;5066208;28;44036;-79
2024/01/10 05:59:43;;;;;;;;;;;18.70;62.60;;;;;;5084342;28;43884;-76
2024/01/10 06:02:08;;;;;;;;;;;18.70;62.90;;;;;;5085737;28;43022;-78
2024/01/10 06:04:34;;;;;;;;;;;18.70;60.80;;;;;;5092849;28;43438;-77
2024/01/10 06:06:59;;;;;;;;;;;18.60;60.30;;;;;;5090567;28;42812;-77
2024/01/10 06:09:25;;;;;;;;;;;18.60;61.50;;;;;;5089210;28;43484;-81
2024/01/10 06:11:50;;;;;;;;;;;18.70;61.10;;;;;;5069377;28;43675;-81
2024/01/10 06:14:16;;;;;;;;;;;18.60;53.70;;;;;;5086459;28;42983;-81
2024/01/10 06:16:42;;;;;;;;;;;18.50;51.70;;;;;;5087772;28;42972;-80
2024/01/10 06:19:07;;;;;;;;;;;18.50;53.70;;;;;;5087441;28;43583;-80
2024/01/10 06:21:33;;;;;;;;;;;18.40;54.60;;;;;;5087145;28;43007;-81
2024/01/10 06:23:58;;;;;;;;;;;18.40;56.50;;;;;;5086673;28;43376;-80
2024/01/10 06:26:24;;;;;;;;;;;18.50;56.90;;;;;;5086731;28;42979;-81
2024/01/10 06:28:49;;;;;;;;;;;18.40;57.20;;;;;;5087298;28;43238;-80
2024/01/10 06:31:15;;;;;;;;;;;18.50;56.80;;;;;;5087397;28;42939;-79
2024/01/10 06:33:40;;;;;;;;;;;18.40;57.50;;;;;;5086309;28;42879;-80
2024/01/10 06:36:06;;;;;;;;;;;18.50;57.60;;;;;;5086919;28;43066;-79
2024/01/10 06:38:32;;;;;;;;;;;18.50;58.20;;;;;;5086866;28;43369;-79
2024/01/10 06:40:58;;;;;;;;;;;18.60;57.80;;;;;;5086399;28;43207;-79
2024/01/10 06:43:23;;;;;;;;;;;18.50;57.30;;;;;;5087192;28;43001;-80
2024/01/10 06:45:49;;;;;;;;;;;18.60;58.50;;;;;;5086833;28;43001;-79
2024/01/10 06:48:15;;;;;;;;;;;18.50;58.10;;;;;;5086711;28;43445;-80
2024/01/10 06:50:40;;;;;;;;;;;18.50;58.10;;;;;;5086467;28;43008;-80
2024/01/10 06:53:06;;;;;;;;;;;18.60;58.20;;;;;;5085702;28;44097;-79
2024/01/10 06:55:31;;;;;;;;;;;18.50;57.70;;;;;;5086576;28;43100;-79
2024/01/10 06:57:57;;;;;;;;;;;18.60;57.90;;;;;;5086791;28;44042;-79
2024/01/10 07:00:23;;;;;;;;;;;18.60;58.60;;;;;;5086653;28;43040;-79
2024/01/10 07:02:49;;;;;;;;;;;18.60;58.70;;;;;;5085870;28;44326;-79
2024/01/10 07:05:14;;;;;;;;;;;18.60;58.30;;;;;;5086297;28;42930;-79
2024/01/10 07:07:40;;;;;;;;;;;18.60;58.50;;;;;;5087117;28;43675;-79
2024/01/10 07:10:06;;;;;;;;;;;18.60;58.50;;;;;;5087125;28;42880;-79
2024/01/10 07:12:32;;;;;;;;;;;18.60;58.70;;;;;;5084979;27;42851;-79
2024/01/10 07:14:58;;;;;;;;;;;18.60;58.60;;;;;;5068033;28;43093;-79
2024/01/10 07:17:24;;;;;;;;;;;18.80;58.90;;;;;;5085800;28;43530;-80
2024/01/10 07:19:49;;;;;;;;;;;18.60;58.90;;;;;;5086872;28;43027;-79
2024/01/10 07:22:15;;;;;;;;;;;18.60;58.80;;;;;;5086530;28;42894;-79
2024/01/10 07:24:40;;;;;;;;;;;18.50;45.30;;;;;;5086060;28;43085;-79
2024/01/10 07:27:07;;;;;;;;;;;18.10;39.00;;;;;;5086097;28;43620;-80
2024/01/10 07:29:34;;;;;;;;;;;17.70;39.10;;;;;;5086211;28;42914;-81
2024/01/10 07:31:59;;;;;;;;;;;17.30;38.40;;;;;;5086317;28;43643;-81
2024/01/10 07:34:25;;;;;;;;;;;16.90;38.30;;;;;;5079417;28;44910;-80
2024/01/10 07:36:51;;;;;;;;;;;16.50;38.50;;;;;;5084870;28;42882;-78
2024/01/10 07:39:18;;;;;;;;;;;16.00;38.60;;;;;;5086073;28;42787;-83
2024/01/10 07:41:43;;;;;;;;;;;15.80;39.50;;;;;;5084090;28;43316;-82
2024/01/10 07:44:09;;;;;;;;;;;15.60;41.70;;;;;;5083683;28;43032;-81
2024/01/10 07:46:37;;;;;;;;;;;15.60;43.50;;;;;;5084328;28;43027;-82
2024/01/10 07:49:03;;;;;;;;;;;15.70;44.40;;;;;;5084010;28;42955;-83
2024/01/10 07:51:29;;;;;;;;;;;15.80;45.70;;;;;;5085110;28;42903;-87
2024/01/10 07:53:55;;;;;;;;;;;15.90;46.50;;;;;;5081987;28;43085;-86
2024/01/10 07:56:20;;;;;;;;;;;16.20;47.20;;;;;;5084458;28;42953;-86
2024/01/10 07:58:46;;;;;;;;;;;16.30;47.90;;;;;;5083865;28;43247;-87
2024/01/10 08:01:11;;;;;;;;;;;16.50;48.30;;;;;;5083574;28;43888;-88
2024/01/10 08:03:37;;;;;;;;;;;16.60;48.00;;;;;;5084161;28;42942;-85
2024/01/10 08:06:03;;;;;;;;;;;16.90;48.80;;;;;;5084163;28;43536;-89
2024/01/10 08:08:28;;;;;;;;;;;16.90;48.90;;;;;;5084861;28;43113;-85
2024/01/10 08:10:55;;;;;;;;;;;16.90;48.50;;;;;;5086261;28;42848;-89
2024/01/10 08:13:21;;;;;;;;;;;17.10;49.30;;;;;;5085643;28;43052;-80
2024/01/10 08:15:46;;;;;;;;;;;17.10;49.60;;;;;;5084304;28;43316;-88
2024/01/10 08:18:14;;;;;;;;;;;17.20;49.80;;;;;;5086156;28;43301;-90
2024/01/10 08:20:39;;;;;;;;;;;17.30;49.90;;;;;;5086020;28;42931;-88
2024/01/10 08:23:05;;;;;;;;;;;17.30;50.10;;;;;;5086218;27;43588;-87
2024/01/10 08:25:30;;;;;;;;;;;17.40;50.30;;;;;;5085675;28;43485;-88
2024/01/10 08:27:57;;;;;;;;;;;17.40;49.80;;;;;;5094509;28;42917;-86
2024/01/10 08:30:23;;;;;;;;;;;17.40;50.60;;;;;;5090656;28;43292;-81
2024/01/10 08:32:49;;;;;;;;;;;17.60;50.20;;;;;;5086329;28;42871;-82
2024/01/10 08:35:15;;;;;;;;;;;17.60;51.10;;;;;;5084299;28;42878;-84
2024/01/10 08:37:42;;;;;;;;;;;17.60;51.10;;;;;;5085079;28;43042;-83
2024/01/10 08:40:11;;;;;;;;;;;17.70;51.30;;;;;;5084670;28;43549;-84
2024/01/10 08:42:38;;;;;;;;;;;17.70;51.20;;;;;;5083982;28;42966;-84
2024/01/10 08:45:03;;;;;;;;;;;17.70;51.30;;;;;;5082455;28;43044;-83
2024/01/10 08:47:32;;;;;;;;;;;17.80;51.50;;;;;;5085348;28;42836;-83
2024/01/10 08:50:01;;;;;;;;;;;17.80;51.70;;;;;;5084137;28;42910;-84
2024/01/10 08:52:26;;;;;;;;;;;17.80;51.30;;;;;;5085897;28;42933;-82
2024/01/10 08:54:52;;;;;;;;;;;17.90;51.40;;;;;;5082987;28;43886;-84
2024/01/10 08:57:17;;;;;;;;;;;17.80;52.00;;;;;;5066570;28;43055;-84
2024/01/10 08:59:43;;;;;;;;;;;17.90;52.10;;;;;;5084082;28;43002;-85
2024/01/10 09:02:08;;;;;;;;;;;17.90;52.20;;;;;;5084832;28;42857;-82
2024/01/10 09:04:34;;;;;;;;;;;17.90;52.40;;;;;;5084448;28;42990;-84
2024/01/10 09:06:59;;;;;;;;;;;17.70;51.80;;;;;;5084545;28;43002;-85
2024/01/10 09:09:25;;;;;;;;;;;17.90;52.00;;;;;;5084439;28;44201;-82
2024/01/10 09:11:50;;;;;;;;;;;17.90;52.10;;;;;;5084773;28;42951;-89
2024/01/10 09:14:16;;;;;;;;;;;17.90;52.90;;;;;;5084405;28;44007;-89
2024/01/10 09:16:41;;;;;;;;;;;17.90;53.00;;;;;;5082560;28;43061;-86
2024/01/10 09:19:07;;;;;;;;;;;17.90;53.00;;;;;;5084588;28;43537;-86
2024/01/10 09:21:33;;;;;;;;;;;18.00;52.50;;;;;;5084756;28;42898;-90
2024/01/10 09:23:58;;;;;;;;;;;17.90;53.20;;;;;;5081713;28;42864;-89
2024/01/10 09:26:24;;;;;;;;;;;18.00;53.30;;;;;;5084911;28;42936;-87
2024/01/10 09:28:49;;;;;;;;;;;17.90;53.30;;;;;;5084936;28;42874;-85
2024/01/10 09:31:15;;;;;;;;;;;18.00;52.80;;;;;;5085149;28;42984;-84
2024/01/10 09:33:40;;;;;;;;;;;18.10;53.00;;;;;;5084620;28;42778;-85
2024/01/10 09:36:06;;;;;;;;;;;17.90;53.60;;;;;;5083340;28;43140;-82
2024/01/10 09:38:38;;;;;;;;;;;18.10;53.10;;;;;;5084359;28;42955;-85
2024/01/10 09:41:03;;;;;;;;;;;18.00;53.50;;;;;;5083801;28;42993;-85
2024/01/10 09:43:30;;;;;;;;;;;17.90;53.20;;;;;;5084289;28;42978;-85
2024/01/10 09:45:58;;;;;;;;;;;18.00;53.30;;;;;;5083838;28;59754;-85
2024/01/10 09:48:24;;;;;;;;;;;15.70;52.70;;;;;;5084170;28;42966;-84
2024/01/10 09:50:50;;;;;;;;;;;18.10;54.00;;;;;;5084265;28;42969;-84
2024/01/10 09:53:23;;;;;;;;;;;18.00;54.10;;;;;;5084987;28;42833;-81
2024/01/10 09:55:49;;;;;;;;;;;18.00;53.70;;;;;;5082280;28;42891;-78
2024/01/10 09:58:14;;;;;;;;;;;18.10;53.60;;;;;;5083041;28;42964;-81
2024/01/10 10:00:40;;;;;;;;;;;18.10;54.30;;;;;;5084610;28;42914;-82
2024/01/10 10:03:12;;;;;;;;;;;18.10;54.10;;;;;;5082936;28;43633;-82
2024/01/10 10:05:37;;;;;;;;;;;18.10;53.90;;;;;;5083236;28;43039;-82
2024/01/10 10:08:06;;;;;;;;;;;18.10;53.60;;;;;;5083161;28;44226;-84
2024/01/10 10:10:32;;;;;;;;;;;18.20;53.60;;;;;;5065505;28;42941;-84
2024/01/10 10:12:57;;;;;;;;;;;18.00;54.20;;;;;;5078970;28;42900;-81
2024/01/10 10:15:27;;;;;;;;;;;18.30;53.70;;;;;;5056857;28;42941;-83
2024/01/10 10:17:53;;;;;;;;;;;18.20;54.30;;;;;;5073340;28;42863;-82
2024/01/10 10:20:26;;;;;;;;;;;18.20;54.50;;;;;;5081679;28;43584;-81
2024/01/10 10:23:01;;;;;;;;;;;18.10;54.10;;;;;;5083941;28;42812;-81
2024/01/10 10:25:28;;;;;;;;;;;18.20;54.20;;;;;;5083901;28;42931;-85
2024/01/10 10:27:54;;;;;;;;;;;18.20;54.50;;;;;;5081611;28;42934;-82
2024/01/10 10:30:19;;;;;;;;;;;18.10;54.70;;;;;;5082520;28;43055;-82
2024/01/10 10:32:45;;;;;;;;;;;18.20;54.70;;;;;;5083072;28;43511;-82
2024/01/10 10:35:10;;;;;;;;;;;18.40;56.00;;;;;;5083737;28;43149;-81
2024/01/10 10:37:36;;;;;;;;;;;18.20;55.60;;;;;;5082976;28;43548;-80
2024/01/10 10:40:01;;;;;;;;;;;18.30;55.90;;;;;;5082717;28;43073;-81
2024/01/10 10:42:28;;;;;;;;;;;18.20;56.50;;;;;;5081896;28;43657;-80
2024/01/10 10:44:57;;;;;;;;;;;18.20;55.90;;;;;;5082584;28;43354;-80
2024/01/10 10:47:25;;;;;;;;;;;18.20;56.10;;;;;;5084932;27;42958;-84
2024/01/10 10:49:52;;;;;;;;;;;18.30;56.00;;;;;;5085302;28;43021;-85
2024/01/10 10:52:19;;;;;;;;;;;18.20;55.90;;;;;;5087704;28;42947;-84
2024/01/10 10:54:46;;;;;;;;;;;18.20;56.40;;;;;;5092755;28;42968;-83
2024/01/10 10:57:12;;;;;;;;;;;18.10;56.40;;;;;;5093164;28;43387;-83
2024/01/10 10:59:39;;;;;;;;;;;18.10;54.90;;;;;;5087415;28;42840;-85
2024/01/10 11:02:07;;;;;;;;;;;22.40;57.20;;;;;;5087050;28;42761;-84
2024/01/10 11:04:33;;;;;;;;;;;18.20;55.30;;;;;;5084214;28;43587;-83
2024/01/10 11:06:58;;;;;;;;;;;18.00;54.50;;;;;;5086991;28;43005;-83
2024/01/10 11:09:24;;;;;;;;;;;18.10;55.00;;;;;;5086883;28;43109;-84
2024/01/10 11:12:09;;;;;;;;;;;18.00;54.80;;;;;;5086157;28;43690;-84
2024/01/10 11:14:49;;;;;;;;;;;18.10;53.80;;;;;;5081522;28;42929;-85
2024/01/10 11:17:29;;;;;;;;;;;18.00;52.90;;;;;;5083892;28;42941;-84
2024/01/10 11:20:01;;;;;;;;;;;18.00;50.30;;;;;;5082857;28;43026;-80
2024/01/10 11:22:45;;;;;;;;;;;17.90;50.60;;;;;;5086775;28;43025;-82
2024/01/10 11:25:11;;;;;;;;;;;17.90;48.30;;;;;;5086268;28;43026;-80
2024/01/10 11:27:37;;;;;;;;;;;17.80;51.00;;;;;;5083894;28;42998;-84
2024/01/10 11:30:04;;;;;;;;;;;17.90;51.00;;;;;;5059506;28;42907;-81
2024/01/10 11:32:31;;;;;;;;;;;17.80;50.20;;;;;;5082527;27;43444;-83
2024/01/10 11:35:00;;;;;;;;;;;17.70;47.90;;;;;;5082118;28;42995;-86
2024/01/10 11:37:58;;;;;;;;;;;17.80;47.30;;;;;;5084141;27;43615;-85
2024/01/10 11:40:42;;;;;;;;;;;17.80;47.50;;;;;;5038185;28;43572;-84
2024/01/10 11:43:12;;;;;;;;;;;18.60;47.90;;;;;;5084371;28;43025;-84
2024/01/10 11:45:38;;;;;;;;;;;17.80;47.30;;;;;;5083278;27;42973;-81
2024/01/10 11:48:03;;;;;;;;;;;17.80;48.00;;;;;;5084846;28;42934;-82
2024/01/10 11:50:31;;;;;;;;;;;17.80;45.00;;;;;;5085642;28;42991;-81
2024/01/10 11:52:56;;;;;;;;;;;17.80;46.70;;;;;;5084848;28;44435;-83
2024/01/10 11:55:40;;;;;;;;;;;17.80;45.70;;;;;;5084496;28;42930;-83
2024/01/10 11:58:10;;;;;;;;;;;17.70;45.20;;;;;;5085008;28;42836;-83
2024/01/10 12:00:36;;;;;;;;;;;17.70;39.30;;;;;;5083856;28;42917;-79
2024/01/10 12:03:02;;;;;;;;;;;17.60;36.80;;;;;;5085685;28;43045;-79
2024/01/10 12:05:28;;;;;;;;;;;17.60;34.70;;;;;;5076544;28;43065;-79
2024/01/10 12:07:55;;;;;;;;;;;17.40;34.20;;;;;;5064458;28;42888;-79
2024/01/10 12:10:21;;;;;;;;;;;17.30;32.20;;;;;;5064078;28;43128;-79
2024/01/10 12:12:46;;;;;;;;;;;17.20;33.20;;;;;;5066787;28;43009;-79
2024/01/10 12:15:12;;;;;;;;;;;17.00;32.50;;;;;;5085375;28;42946;-79
2024/01/10 12:17:37;;;;;;;;;;;16.90;32.30;;;;;;5083058;28;44041;-79
2024/01/10 12:20:03;;;;;;;;;;;16.90;31.70;;;;;;5066425;28;42999;-79
2024/01/10 12:22:31;;;;;;;;;;;16.50;31.70;;;;;;5084929;28;42896;-80
2024/01/10 12:25:03;;;;;;;;;;;16.80;32.20;;;;;;5084700;28;43035;-79
2024/01/10 12:27:30;;;;;;;;;;;16.70;32.30;;;;;;5085179;28;43516;-80
2024/01/10 12:29:56;;;;;;;;;;;16.60;33.30;;;;;;5084962;28;42909;-79
2024/01/10 12:32:22;;;;;;;;;;;16.70;34.20;;;;;;5084145;28;43300;-80
2024/01/10 12:34:48;;;;;;;;;;;16.60;36.00;;;;;;5085585;28;43021;-80
2024/01/10 12:37:13;;;;;;;;;;;16.60;37.20;;;;;;5085314;28;43286;-81
2024/01/10 12:39:39;;;;;;;;;;;16.70;38.20;;;;;;5083907;28;42935;-80
2024/01/10 12:42:04;;;;;;;;;;;16.80;39.70;;;;;;5083243;28;43436;-79
2024/01/10 12:44:30;;;;;;;;;;;16.80;40.10;;;;;;5083854;28;42912;-79
2024/01/10 12:46:57;;;;;;;;;;;16.90;41.10;;;;;;5084605;28;43473;-79
2024/01/10 12:49:22;;;;;;;;;;;16.80;41.90;;;;;;5082230;28;42938;-80
2024/01/10 12:51:48;;;;;;;;;;;17.10;42.70;;;;;;5084327;28;43457;-79
2024/01/10 12:54:14;;;;;;;;;;;17.10;42.60;;;;;;5066479;28;43573;-79
2024/01/10 12:56:40;;;;;;;;;;;17.30;43.70;;;;;;5084552;28;42908;-80
2024/01/10 12:59:05;;;;;;;;;;;17.30;44.30;;;;;;5084149;28;43114;-79
2024/01/10 13:01:31;;;;;;;;;;;17.30;44.70;;;;;;5084613;28;43492;-80
2024/01/10 13:03:56;;;;;;;;;;;17.40;45.10;;;;;;5083990;28;42960;-79
2024/01/10 13:06:22;;;;;;;;;;;17.40;44.80;;;;;;5083868;28;43817;-79
2024/01/10 13:08:48;;;;;;;;;;;17.50;45.70;;;;;;5083998;28;42792;-79
2024/01/10 13:11:14;;;;;;;;;;;17.50;45.80;;;;;;5083808;28;43601;-80
2024/01/10 13:13:40;;;;;;;;;;;17.50;46.10;;;;;;5084538;28;42898;-79
2024/01/10 13:16:06;;;;;;;;;;;17.60;45.80;;;;;;5083685;28;43199;-79
2024/01/10 13:18:31;;;;;;;;;;;17.60;46.50;;;;;;5085599;28;43004;-79
2024/01/10 13:20:57;;;;;;;;;;;17.60;47.00;;;;;;5088935;28;42997;-79
2024/01/10 13:23:23;;;;;;;;;;;17.60;47.20;;;;;;5082899;28;43071;-79
2024/01/10 13:25:49;;;;;;;;;;;17.70;47.30;;;;;;5084782;28;43460;-80
2024/01/10 13:28:15;;;;;;;;;;;17.70;47.40;;;;;;5084329;28;43294;-80
2024/01/10 13:30:41;;;;;;;;;;;17.70;47.60;;;;;;5083550;28;43037;-80
2024/01/10 13:33:07;;;;;;;;;;;17.70;47.80;;;;;;5084461;28;43013;-79
2024/01/10 13:35:33;;;;;;;;;;;17.80;47.90;;;;;;5084035;28;43658;-79
2024/01/10 13:37:58;;;;;;;;;;;17.80;48.10;;;;;;5083682;28;43029;-79
2024/01/10 13:40:26;;;;;;;;;;;17.80;47.70;;;;;;5083794;28;44107;-79
2024/01/10 13:42:53;;;;;;;;;;;17.80;48.00;;;;;;5065175;28;43062;-79
2024/01/10 13:45:18;;;;;;;;;;;17.70;47.90;;;;;;5084836;28;43592;-79
2024/01/10 13:47:44;;;;;;;;;;;17.80;48.30;;;;;;5066940;28;42872;-79
2024/01/10 13:50:10;;;;;;;;;;;17.80;48.90;;;;;;5083206;28;43045;-79
2024/01/10 13:52:36;;;;;;;;;;;17.80;49.00;;;;;;5084598;28;43011;-79
2024/01/10 13:55:04;;;;;;;;;;;17.80;48.60;;;;;;5084921;28;42939;-79
2024/01/10 13:57:30;;;;;;;;;;;17.90;49.20;;;;;;5081739;28;43062;-79
2024/01/10 13:59:56;;;;;;;;;;;17.90;48.70;;;;;;5084846;28;43046;-78
2024/01/10 14:02:24;;;;;;;;;;;17.90;49.50;;;;;;5084350;28;43636;-80
2024/01/10 14:04:50;;;;;;;;;;;17.90;49.40;;;;;;5083965;28;42884;-78
2024/01/10 14:07:16;;;;;;;;;;;17.90;49.50;;;;;;5083935;28;43073;-79
2024/01/10 14:09:41;;;;;;;;;;;17.90;49.70;;;;;;5084407;28;43708;-79